Terminal Aerodrome Forecast
Issued by NWS

Home | Current Version | Previous Version | Text Only | Print | Product List | Glossary On
Versions: 1 2 3 4 5 6 7 8 9 10 11 12 13
000
FTAK31 PAJN 292340
TAFAWG
TAF
PAWG 292340Z 3000/3024 31008KT P6SM -SHRA FEW007 BKN035 OVC040
     FM300300 VRB04KT P6SM VCSH BKN050 OVC070
     FM300700 VRB04KT P6SM SCT025 OVC040
     FM301600 12008KT P6SM VCSH SCT015 BKN035 OVC070
     FM301900 12014G23KT 6SM -RA BR SCT020 BKN035 OVC070
      WS020/13040KT=

USA.gov is the U.S. government's official web portal to all federal, state and local government web resources and services.